CDA911 EDDM-EKCH
Flight info
| Callsign | CDA911 |
|---|---|
| Flight time | N/A |
| Altitude | 30000 |
| Route | INPUD Y102 UPALA M726 LASGA DCT EMBOX DCT NOBRI M726 ROSOK Q296 MONAK |
| Aircraft | A333/H-SDE2E3GIRWXY/LB1 |
Departure
| Time | 2026-05-01 09:48 |
|---|---|
| Airport | Munich Airport (EDDM) |
Arrival
| Time | N/A |
|---|---|
| Airport | Copenhagen Kastrup Airport (EKCH) |
| Time | Latitude | Longitude | Altitude | Speed | Heading |
|---|---|---|---|---|---|
| 2026-05-01 09:14 | 48.35743 | 11.79935 | 1464 ft | 0 kts | 263° |
| 2026-05-01 09:30 | 48.35744 | 11.79954 | 1459 ft | 3 kts | 263° |
| 2026-05-01 09:30 | 48.35746 | 11.79982 | 1466 ft | 3 kts | 263° |
| 2026-05-01 09:30 | 48.35751 | 11.80038 | 1464 ft | 3 kts | 263° |
| 2026-05-01 09:31 | 48.35752 | 11.80057 | 1464 ft | 3 kts | 263° |
| 2026-05-01 09:31 | 48.35753 | 11.80067 | 1463 ft | 0 kts | 270° |
| 2026-05-01 09:31 | 48.35748 | 11.80099 | 1461 ft | 0 kts | 324° |
| 2026-05-01 09:36 | 48.35754 | 11.80093 | 1463 ft | 2 kts | 324° |
| 2026-05-01 09:37 | 48.35765 | 11.80076 | 1459 ft | 3 kts | 309° |
| 2026-05-01 09:37 | 48.35795 | 11.79915 | 1466 ft | 12 kts | 264° |
| 2026-05-01 09:37 | 48.35786 | 11.79768 | 1466 ft | 15 kts | 265° |
| 2026-05-01 09:38 | 48.35798 | 11.79536 | 1459 ft | 6 kts | 328° |
| 2026-05-01 09:38 | 48.35847 | 11.79524 | 1471 ft | 9 kts | 355° |
| 2026-05-01 09:38 | 48.35887 | 11.79485 | 1462 ft | 7 kts | 304° |
| 2026-05-01 09:39 | 48.35926 | 11.79354 | 1462 ft | 5 kts | 340° |
| 2026-05-01 09:39 | 48.35974 | 11.79339 | 1466 ft | 8 kts | 352° |
| 2026-05-01 09:39 | 48.36020 | 11.79331 | 1464 ft | 0 kts | 353° |
| 2026-05-01 09:41 | 48.36027 | 11.79329 | 1467 ft | 3 kts | 353° |
| 2026-05-01 09:42 | 48.36062 | 11.79320 | 1466 ft | 7 kts | 343° |
| 2026-05-01 09:42 | 48.36084 | 11.79262 | 1463 ft | 7 kts | 270° |
| 2026-05-01 09:42 | 48.36071 | 11.79058 | 1466 ft | 14 kts | 263° |
| 2026-05-01 09:43 | 48.36040 | 11.78634 | 1471 ft | 26 kts | 263° |
| 2026-05-01 09:43 | 48.36016 | 11.78343 | 1467 ft | 30 kts | 260° |
| 2026-05-01 09:43 | 48.35992 | 11.78016 | 1460 ft | 33 kts | 263° |
| 2026-05-01 09:44 | 48.35943 | 11.77324 | 1464 ft | 34 kts | 266° |
| 2026-05-01 09:44 | 48.35915 | 11.76985 | 1470 ft | 27 kts | 266° |
| 2026-05-01 09:44 | 48.35984 | 11.76826 | 1461 ft | 16 kts | 343° |
| 2026-05-01 09:45 | 48.36051 | 11.76810 | 1465 ft | 0 kts | 353° |
| 2026-05-01 09:45 | 48.36063 | 11.76808 | 1464 ft | 3 kts | 353° |
| 2026-05-01 09:45 | 48.36093 | 11.76803 | 1464 ft | 6 kts | 353° |
| 2026-05-01 09:46 | 48.36139 | 11.76795 | 1463 ft | 8 kts | 355° |
| 2026-05-01 09:46 | 48.36200 | 11.76798 | 1470 ft | 10 kts | 9° |
| 2026-05-01 09:46 | 48.36264 | 11.76855 | 1458 ft | 12 kts | 42° |
| 2026-05-01 09:46 | 48.36290 | 11.76920 | 1462 ft | 2 kts | 77° |
| 2026-05-01 09:47 | 48.36290 | 11.76927 | 1461 ft | 0 kts | 82° |
| 2026-05-01 09:48 | 48.36305 | 11.77128 | 1471 ft | 54 kts | 83° |
| 2026-05-01 09:48 | 48.36380 | 11.78110 | 1457 ft | 134 kts | 84° |
| 2026-05-01 09:48 | 48.36545 | 11.79810 | 1815 ft | 183 kts | 82° |
| 2026-05-01 09:48 | 48.36871 | 11.81639 | 2965 ft | 179 kts | 67° |
| 2026-05-01 09:49 | 48.37345 | 11.83373 | 3745 ft | 185 kts | 75° |
| 2026-05-01 09:49 | 48.37504 | 11.85390 | 4178 ft | 208 kts | 85° |
| 2026-05-01 09:49 | 48.38135 | 11.87464 | 4601 ft | 235 kts | 49° |
| 2026-05-01 09:49 | 48.39638 | 11.88578 | 5248 ft | 255 kts | 12° |
| 2026-05-01 09:50 | 48.41410 | 11.88123 | 5946 ft | 268 kts | 335° |
| 2026-05-01 09:50 | 48.42793 | 11.86212 | 6746 ft | 273 kts | 307° |
| 2026-05-01 09:50 | 48.43879 | 11.83862 | 7408 ft | 276 kts | 307° |
| 2026-05-01 09:50 | 48.45003 | 11.81494 | 7748 ft | 280 kts | 308° |
| 2026-05-01 09:51 | 48.46183 | 11.79170 | 7778 ft | 279 kts | 310° |
| 2026-05-01 09:51 | 48.47389 | 11.76921 | 8016 ft | 282 kts | 312° |
| 2026-05-01 09:51 | 48.48647 | 11.74638 | 8773 ft | 280 kts | 312° |
| 2026-05-01 09:51 | 48.49903 | 11.72379 | 9333 ft | 284 kts | 313° |
| 2026-05-01 09:52 | 48.51191 | 11.70091 | 9586 ft | 288 kts | 314° |
| 2026-05-01 09:52 | 48.52509 | 11.67817 | 9486 ft | 287 kts | 319° |
| 2026-05-01 09:52 | 48.54078 | 11.66013 | 9396 ft | 283 kts | 332° |
| 2026-05-01 09:52 | 48.55786 | 11.64567 | 9394 ft | 281 kts | 336° |
| 2026-05-01 09:53 | 48.57545 | 11.63292 | 9394 ft | 280 kts | 338° |
| 2026-05-01 09:53 | 48.59329 | 11.62127 | 9400 ft | 279 kts | 340° |
| 2026-05-01 09:53 | 48.61129 | 11.61010 | 9412 ft | 279 kts | 341° |
| 2026-05-01 09:53 | 48.62933 | 11.59906 | 9705 ft | 283 kts | 342° |
| 2026-05-01 09:54 | 48.64767 | 11.58779 | 10316 ft | 293 kts | 341° |
| 2026-05-01 09:54 | 48.66687 | 11.57588 | 10927 ft | 307 kts | 340° |
| 2026-05-01 09:54 | 48.68738 | 11.56304 | 11247 ft | 330 kts | 341° |
| 2026-05-01 09:54 | 48.70903 | 11.54934 | 11738 ft | 344 kts | 340° |
| 2026-05-01 09:55 | 48.73134 | 11.53503 | 12468 ft | 350 kts | 340° |
| 2026-05-01 09:55 | 48.75386 | 11.52052 | 13308 ft | 354 kts | 340° |
| 2026-05-01 09:55 | 48.77659 | 11.50586 | 14150 ft | 357 kts | 340° |
| 2026-05-01 09:55 | 48.79959 | 11.49102 | 14870 ft | 361 kts | 340° |
| 2026-05-01 09:56 | 48.82286 | 11.47600 | 15586 ft | 365 kts | 340° |
| 2026-05-01 09:56 | 48.84600 | 11.46107 | 16304 ft | 368 kts | 340° |
| 2026-05-01 09:56 | 48.86970 | 11.44576 | 17019 ft | 372 kts | 340° |
| 2026-05-01 09:56 | 48.89370 | 11.43026 | 17664 ft | 378 kts | 340° |
| 2026-05-01 09:57 | 48.91802 | 11.41454 | 18372 ft | 382 kts | 340° |
| 2026-05-01 09:57 | 48.94255 | 11.39866 | 18974 ft | 385 kts | 340° |
| 2026-05-01 09:57 | 48.96723 | 11.38268 | 19302 ft | 386 kts | 340° |
| 2026-05-01 09:57 | 48.99196 | 11.36663 | 19396 ft | 387 kts | 340° |
| 2026-05-01 09:58 | 49.01675 | 11.35052 | 19393 ft | 387 kts | 340° |
| 2026-05-01 09:58 | 49.04153 | 11.33441 | 19389 ft | 388 kts | 340° |
| 2026-05-01 09:58 | 49.06604 | 11.31846 | 19495 ft | 390 kts | 340° |
| 2026-05-01 09:58 | 49.09112 | 11.30214 | 20029 ft | 392 kts | 340° |
| 2026-05-01 09:59 | 49.11620 | 11.28578 | 20708 ft | 392 kts | 340° |
| 2026-05-01 09:59 | 49.14136 | 11.26934 | 21215 ft | 395 kts | 340° |
| 2026-05-01 09:59 | 49.16660 | 11.25285 | 21380 ft | 395 kts | 340° |
| 2026-05-01 09:59 | 49.19187 | 11.23633 | 21388 ft | 395 kts | 340° |
| 2026-05-01 10:00 | 49.21784 | 11.22363 | 21392 ft | 391 kts | 350° |
| 2026-05-01 10:00 | 49.24453 | 11.21570 | 21390 ft | 390 kts | 353° |
| 2026-05-01 10:00 | 49.27126 | 11.20899 | 21391 ft | 390 kts | 354° |
| 2026-05-01 10:00 | 49.29806 | 11.20264 | 21400 ft | 390 kts | 354° |
| 2026-05-01 10:01 | 49.32484 | 11.19643 | 21550 ft | 391 kts | 354° |
| 2026-05-01 10:01 | 49.35194 | 11.19020 | 22103 ft | 394 kts | 354° |
| 2026-05-01 10:01 | 49.37916 | 11.18395 | 22641 ft | 398 kts | 354° |
| 2026-05-01 10:01 | 49.40661 | 11.17766 | 23230 ft | 400 kts | 354° |
| 2026-05-01 10:02 | 49.43388 | 11.17140 | 23800 ft | 402 kts | 354° |
| 2026-05-01 10:02 | 49.46163 | 11.16502 | 24311 ft | 405 kts | 353° |
| 2026-05-01 10:02 | 49.48956 | 11.15860 | 24755 ft | 407 kts | 353° |
| 2026-05-01 10:02 | 49.51768 | 11.15212 | 25207 ft | 410 kts | 353° |
| 2026-05-01 10:03 | 49.54599 | 11.14560 | 25667 ft | 412 kts | 353° |
| 2026-05-01 10:03 | 49.57440 | 11.13904 | 26118 ft | 414 kts | 353° |
| 2026-05-01 10:03 | 49.60300 | 11.13244 | 26552 ft | 417 kts | 353° |
| 2026-05-01 10:03 | 49.63177 | 11.12579 | 27023 ft | 419 kts | 353° |
| 2026-05-01 10:04 | 49.66068 | 11.11910 | 27447 ft | 421 kts | 353° |
| 2026-05-01 10:04 | 49.68939 | 11.11245 | 27870 ft | 424 kts | 353° |
| 2026-05-01 10:04 | 49.71864 | 11.10566 | 28303 ft | 426 kts | 353° |
| 2026-05-01 10:04 | 49.74805 | 11.09883 | 28723 ft | 429 kts | 353° |
| 2026-05-01 10:05 | 49.77767 | 11.09194 | 29136 ft | 432 kts | 353° |
| 2026-05-01 10:05 | 49.80742 | 11.08502 | 29551 ft | 434 kts | 353° |
| 2026-05-01 10:05 | 49.83735 | 11.07805 | 29967 ft | 436 kts | 353° |
| 2026-05-01 10:05 | 49.86749 | 11.07102 | 30327 ft | 439 kts | 353° |
| 2026-05-01 10:06 | 49.92689 | 11.05709 | 30405 ft | 425 kts | 353° |
| 2026-05-01 10:06 | 49.98519 | 11.04342 | 30409 ft | 423 kts | 353° |
| 2026-05-01 10:07 | 50.04346 | 11.02974 | 30411 ft | 423 kts | 353° |
| 2026-05-01 10:07 | 50.10133 | 11.01611 | 30407 ft | 424 kts | 353° |
| 2026-05-01 10:08 | 50.18906 | 10.99538 | 30409 ft | 426 kts | 353° |
| 2026-05-01 10:09 | 50.24765 | 10.98150 | 30410 ft | 426 kts | 353° |
| 2026-05-01 10:09 | 50.30617 | 10.96758 | 30415 ft | 426 kts | 353° |
| 2026-05-01 10:10 | 50.36435 | 10.95372 | 30416 ft | 426 kts | 353° |
| 2026-05-01 10:10 | 50.45222 | 10.93272 | 30414 ft | 426 kts | 353° |
| 2026-05-01 10:11 | 50.51080 | 10.91869 | 30413 ft | 426 kts | 353° |
| 2026-05-01 10:11 | 50.56942 | 10.90459 | 30420 ft | 426 kts | 353° |
| 2026-05-01 10:12 | 50.62803 | 10.89047 | 30421 ft | 426 kts | 353° |
| 2026-05-01 10:13 | 50.71549 | 10.86932 | 30423 ft | 426 kts | 353° |
| 2026-05-01 10:13 | 50.77410 | 10.85512 | 30422 ft | 426 kts | 353° |
| 2026-05-01 10:14 | 50.86200 | 10.83373 | 30424 ft | 427 kts | 353° |
| 2026-05-01 10:14 | 50.92080 | 10.81939 | 30441 ft | 428 kts | 353° |
| 2026-05-01 10:15 | 50.97916 | 10.80511 | 30427 ft | 428 kts | 353° |
| 2026-05-01 10:15 | 51.03798 | 10.79068 | 30425 ft | 428 kts | 353° |
| 2026-05-01 10:16 | 51.09684 | 10.77621 | 30420 ft | 428 kts | 352° |
| 2026-05-01 10:17 | 51.18518 | 10.75443 | 30423 ft | 428 kts | 352° |
| 2026-05-01 10:17 | 51.27307 | 10.73265 | 30437 ft | 428 kts | 353° |
| 2026-05-01 10:18 | 51.36144 | 10.71069 | 30417 ft | 429 kts | 352° |
| 2026-05-01 10:19 | 51.42028 | 10.69602 | 30422 ft | 428 kts | 352° |
| 2026-05-01 10:19 | 51.47885 | 10.68137 | 30429 ft | 428 kts | 353° |
| 2026-05-01 10:20 | 51.56716 | 10.65921 | 30431 ft | 429 kts | 352° |
| 2026-05-01 10:20 | 51.62610 | 10.64438 | 30412 ft | 430 kts | 352° |
| 2026-05-01 10:21 | 51.71478 | 10.62198 | 30423 ft | 430 kts | 352° |
| 2026-05-01 10:22 | 51.80307 | 10.59960 | 30424 ft | 429 kts | 353° |
| 2026-05-01 10:23 | 51.89198 | 10.59328 | 30414 ft | 428 kts | 13° |
| 2026-05-01 10:23 | 51.97555 | 10.64363 | 30418 ft | 428 kts | 24° |
| 2026-05-01 10:24 | 52.08400 | 10.72196 | 30424 ft | 429 kts | 25° |
| 2026-05-01 10:25 | 52.19265 | 10.80236 | 30423 ft | 429 kts | 25° |
| 2026-05-01 10:26 | 52.24698 | 10.84267 | 30420 ft | 429 kts | 25° |
| 2026-05-01 10:27 | 52.35526 | 10.92318 | 30420 ft | 429 kts | 25° |
| 2026-05-01 10:28 | 52.43685 | 10.98400 | 30415 ft | 429 kts | 25° |
| 2026-05-01 10:28 | 52.51825 | 11.04495 | 30430 ft | 429 kts | 25° |
| 2026-05-01 10:29 | 52.59936 | 11.10598 | 30424 ft | 429 kts | 25° |
| 2026-05-01 10:30 | 52.70792 | 11.18795 | 30424 ft | 429 kts | 25° |
| 2026-05-01 10:31 | 52.76052 | 11.23381 | 30424 ft | 428 kts | 40° |
| 2026-05-01 10:31 | 52.79225 | 11.31415 | 30428 ft | 426 kts | 75° |
| 2026-05-01 10:32 | 52.80321 | 11.46031 | 30418 ft | 429 kts | 84° |
| 2026-05-01 10:33 | 52.81417 | 11.65657 | 30423 ft | 429 kts | 84° |
| 2026-05-01 10:34 | 52.82198 | 11.80285 | 30428 ft | 427 kts | 84° |
| 2026-05-01 10:34 | 52.82713 | 11.90066 | 30419 ft | 427 kts | 84° |
| 2026-05-01 10:35 | 52.83479 | 12.04729 | 30424 ft | 427 kts | 84° |
| 2026-05-01 10:35 | 52.83982 | 12.14445 | 30415 ft | 427 kts | 84° |
| 2026-05-01 10:36 | 52.84710 | 12.29105 | 30427 ft | 426 kts | 84° |
| 2026-05-01 10:37 | 52.85194 | 12.38856 | 30417 ft | 425 kts | 81° |
| 2026-05-01 10:37 | 52.87716 | 12.47455 | 30409 ft | 422 kts | 45° |
| 2026-05-01 10:37 | 52.90065 | 12.50344 | 30409 ft | 423 kts | 27° |
| 2026-05-01 10:38 | 52.92810 | 12.51871 | 30408 ft | 425 kts | 10° |
| 2026-05-01 10:38 | 52.95767 | 12.51925 | 30407 ft | 428 kts | 352° |
| 2026-05-01 10:38 | 52.98615 | 12.50454 | 30427 ft | 432 kts | 334° |
| 2026-05-01 10:38 | 53.01185 | 12.47829 | 30406 ft | 435 kts | 328° |
| 2026-05-01 10:39 | 53.05757 | 12.41300 | 30423 ft | 440 kts | 305° |
| 2026-05-01 10:39 | 53.07096 | 12.36730 | 30417 ft | 443 kts | 288° |
| 2026-05-01 10:39 | 53.07660 | 12.31691 | 30414 ft | 445 kts | 277° |
| 2026-05-01 10:40 | 53.08128 | 12.21427 | 30123 ft | 445 kts | 275° |
| 2026-05-01 10:40 | 53.08341 | 12.16349 | 29254 ft | 448 kts | 275° |
| 2026-05-01 10:40 | 53.08558 | 12.11167 | 28504 ft | 449 kts | 275° |
| 2026-05-01 10:41 | 53.08773 | 12.05995 | 27888 ft | 447 kts | 275° |
| 2026-05-01 10:41 | 53.08986 | 12.00849 | 27326 ft | 444 kts | 275° |
| 2026-05-01 10:41 | 53.09405 | 11.90672 | 26230 ft | 438 kts | 275° |
| 2026-05-01 10:42 | 53.09610 | 11.85633 | 25697 ft | 435 kts | 275° |
| 2026-05-01 10:42 | 53.09813 | 11.80628 | 25174 ft | 432 kts | 275° |
| 2026-05-01 10:42 | 53.10017 | 11.75656 | 24670 ft | 429 kts | 274° |
| 2026-05-01 10:42 | 53.10236 | 11.70726 | 24196 ft | 425 kts | 274° |
| 2026-05-01 10:43 | 53.10455 | 11.65903 | 23639 ft | 423 kts | 274° |
| 2026-05-01 10:43 | 53.10724 | 11.61052 | 23043 ft | 420 kts | 280° |
| 2026-05-01 10:43 | 53.11699 | 11.56525 | 22462 ft | 415 kts | 301° |
| 2026-05-01 10:43 | 53.13376 | 11.52662 | 21906 ft | 410 kts | 312° |
| 2026-05-01 10:44 | 53.15324 | 11.49233 | 21379 ft | 406 kts | 316° |
| 2026-05-01 10:44 | 53.17331 | 11.45963 | 20840 ft | 403 kts | 317° |
| 2026-05-01 10:44 | 53.19311 | 11.42687 | 20507 ft | 399 kts | 316° |
| 2026-05-01 10:44 | 53.21236 | 11.39342 | 20412 ft | 399 kts | 314° |
| 2026-05-01 10:45 | 53.23085 | 11.35967 | 20417 ft | 400 kts | 313° |
| 2026-05-01 10:45 | 53.24921 | 11.32490 | 20406 ft | 400 kts | 312° |
| 2026-05-01 10:45 | 53.26737 | 11.28970 | 20412 ft | 400 kts | 311° |
| 2026-05-01 10:45 | 53.28543 | 11.25434 | 20407 ft | 400 kts | 311° |
| 2026-05-01 10:46 | 53.30350 | 11.21892 | 20408 ft | 400 kts | 311° |
| 2026-05-01 10:46 | 53.32154 | 11.18349 | 20428 ft | 400 kts | 311° |
| 2026-05-01 10:46 | 53.33958 | 11.14801 | 20425 ft | 399 kts | 311° |
| 2026-05-01 10:46 | 53.35715 | 11.11335 | 20425 ft | 382 kts | 311° |
| 2026-05-01 10:47 | 53.37372 | 11.08060 | 20426 ft | 366 kts | 311° |
| 2026-05-01 10:47 | 53.38984 | 11.04869 | 20426 ft | 351 kts | 311° |
| 2026-05-01 10:47 | 53.40543 | 11.01783 | 20425 ft | 344 kts | 311° |
| 2026-05-01 10:47 | 53.42088 | 10.98721 | 20409 ft | 344 kts | 311° |
| 2026-05-01 10:48 | 53.43635 | 10.95653 | 20407 ft | 345 kts | 311° |
| 2026-05-01 10:48 | 53.45185 | 10.92575 | 20427 ft | 345 kts | 311° |
| 2026-05-01 10:48 | 53.46730 | 10.89501 | 20414 ft | 345 kts | 311° |
| 2026-05-01 10:48 | 53.48280 | 10.86416 | 20426 ft | 345 kts | 310° |
| 2026-05-01 10:49 | 53.49825 | 10.83333 | 20409 ft | 345 kts | 310° |
| 2026-05-01 10:49 | 53.51371 | 10.80244 | 20120 ft | 345 kts | 310° |